sensor_id;sensor_type;location;lat;lon;timestamp;temperature;humidity
4461;DHT22;2243;48.812;9.232;2023-01-24T00:00:39;3.90;99.90
4461;DHT22;2243;48.812;9.232;2023-01-24T00:03:13;3.70;99.90
4461;DHT22;2243;48.812;9.232;2023-01-24T00:05:46;3.60;99.90
4461;DHT22;2243;48.812;9.232;2023-01-24T00:08:19;3.70;99.90
4461;DHT22;2243;48.812;9.232;2023-01-24T00:11:02;3.60;99.90
4461;DHT22;2243;48.812;9.232;2023-01-24T00:13:35;3.70;99.90
4461;DHT22;2243;48.812;9.232;2023-01-24T00:18:46;3.60;99.90
4461;DHT22;2243;48.812;9.232;2023-01-24T00:21:20;3.60;99.90
4461;DHT22;2243;48.812;9.232;2023-01-24T00:23:53;3.70;99.90
4461;DHT22;2243;48.812;9.232;2023-01-24T00:26:25;3.70;99.90
4461;DHT22;2243;48.812;9.232;2023-01-24T00:28:56;3.60;99.90
4461;DHT22;2243;48.812;9.232;2023-01-24T00:31:28;3.70;99.90
4461;DHT22;2243;48.812;9.232;2023-01-24T00:33:59;3.80;99.90
4461;DHT22;2243;48.812;9.232;2023-01-24T00:36:31;3.80;99.90
4461;DHT22;2243;48.812;9.232;2023-01-24T00:39:02;3.80;99.90
4461;DHT22;2243;48.812;9.232;2023-01-24T00:41:33;3.70;99.90
4461;DHT22;2243;48.812;9.232;2023-01-24T00:44:04;3.60;99.90
4461;DHT22;2243;48.812;9.232;2023-01-24T00:46:35;3.60;99.90
4461;DHT22;2243;48.812;9.232;2023-01-24T00:49:06;3.80;99.90
4461;DHT22;2243;48.812;9.232;2023-01-24T00:51:37;3.80;99.90
4461;DHT22;2243;48.812;9.232;2023-01-24T00:54:08;3.80;99.90
4461;DHT22;2243;48.812;9.232;2023-01-24T00:56:39;3.70;99.90
4461;DHT22;2243;48.812;9.232;2023-01-24T00:59:10;3.80;99.90
4461;DHT22;2243;48.812;9.232;2023-01-24T01:01:41;3.90;99.90
4461;DHT22;2243;48.812;9.232;2023-01-24T01:04:12;3.90;99.90
4461;DHT22;2243;48.812;9.232;2023-01-24T01:06:44;3.80;99.90
4461;DHT22;2243;48.812;9.232;2023-01-24T01:09:15;3.80;99.90
4461;DHT22;2243;48.812;9.232;2023-01-24T01:11:46;3.80;99.90
4461;DHT22;2243;48.812;9.232;2023-01-24T01:14:17;3.80;99.90
4461;DHT22;2243;48.812;9.232;2023-01-24T01:16:48;3.80;99.90
4461;DHT22;2243;48.812;9.232;2023-01-24T01:19:19;3.80;99.90
4461;DHT22;2243;48.812;9.232;2023-01-24T01:21:50;3.90;99.90
4461;DHT22;2243;48.812;9.232;2023-01-24T01:24:21;4.00;99.90
4461;DHT22;2243;48.812;9.232;2023-01-24T01:26:52;4.00;99.90
4461;DHT22;2243;48.812;9.232;2023-01-24T01:29:23;3.80;99.90
4461;DHT22;2243;48.812;9.232;2023-01-24T01:31:54;3.70;99.90
4461;DHT22;2243;48.812;9.232;2023-01-24T01:34:25;3.70;99.90
4461;DHT22;2243;48.812;9.232;2023-01-24T01:36:56;3.80;99.90
4461;DHT22;2243;48.812;9.232;2023-01-24T01:39:28;3.90;99.90
4461;DHT22;2243;48.812;9.232;2023-01-24T01:41:59;3.90;99.90
4461;DHT22;2243;48.812;9.232;2023-01-24T01:44:31;3.90;99.90
4461;DHT22;2243;48.812;9.232;2023-01-24T01:47:25;4.00;99.90
4461;DHT22;2243;48.812;9.232;2023-01-24T01:52:46;4.10;99.90
4461;DHT22;2243;48.812;9.232;2023-01-24T01:55:19;4.10;99.90
4461;DHT22;2243;48.812;9.232;2023-01-24T01:57:52;4.00;99.90
4461;DHT22;2243;48.812;9.232;2023-01-24T02:00:25;3.90;99.90
4461;DHT22;2243;48.812;9.232;2023-01-24T02:03:06;4.00;99.90
4461;DHT22;2243;48.812;9.232;2023-01-24T02:05:59;4.10;99.90
4461;DHT22;2243;48.812;9.232;2023-01-24T02:08:30;3.90;99.90
4461;DHT22;2243;48.812;9.232;2023-01-24T02:11:02;3.90;99.90
4461;DHT22;2243;48.812;9.232;2023-01-24T02:13:53;3.90;99.90
4461;DHT22;2243;48.812;9.232;2023-01-24T02:16:44;4.00;99.90
4461;DHT22;2243;48.812;9.232;2023-01-24T02:19:26;4.00;99.90
4461;DHT22;2243;48.812;9.232;2023-01-24T02:25:30;4.10;99.90
4461;DHT22;2243;48.812;9.232;2023-01-24T02:28:02;4.00;99.90
4461;DHT22;2243;48.812;9.232;2023-01-24T02:30:36;4.00;99.90
4461;DHT22;2243;48.812;9.232;2023-01-24T02:33:10;4.00;99.90
4461;DHT22;2243;48.812;9.232;2023-01-24T02:35:41;3.90;99.90
4461;DHT22;2243;48.812;9.232;2023-01-24T02:38:19;4.00;99.90
4461;DHT22;2243;48.812;9.232;2023-01-24T02:40:56;3.90;99.90
4461;DHT22;2243;48.812;9.232;2023-01-24T02:43:44;3.90;99.90
4461;DHT22;2243;48.812;9.232;2023-01-24T02:46:16;3.80;99.90
4461;DHT22;2243;48.812;9.232;2023-01-24T02:48:50;3.80;99.90
4461;DHT22;2243;48.812;9.232;2023-01-24T02:51:21;3.80;99.90
4461;DHT22;2243;48.812;9.232;2023-01-24T02:54:10;3.70;99.90
4461;DHT22;2243;48.812;9.232;2023-01-24T02:56:41;3.60;99.90
4461;DHT22;2243;48.812;9.232;2023-01-24T02:59:31;3.60;99.90
4461;DHT22;2243;48.812;9.232;2023-01-24T03:02:02;3.70;99.90
4461;DHT22;2243;48.812;9.232;2023-01-24T03:04:33;3.60;99.90
4461;DHT22;2243;48.812;9.232;2023-01-24T03:07:03;3.60;99.90
4461;DHT22;2243;48.812;9.232;2023-01-24T03:09:34;3.60;99.90
4461;DHT22;2243;48.812;9.232;2023-01-24T03:12:07;3.60;99.90
4461;DHT22;2243;48.812;9.232;2023-01-24T03:14:56;3.70;99.90
4461;DHT22;2243;48.812;9.232;2023-01-24T03:17:46;3.60;99.90
4461;DHT22;2243;48.812;9.232;2023-01-24T03:20:35;3.50;99.90
4461;DHT22;2243;48.812;9.232;2023-01-24T03:23:25;3.50;99.90
4461;DHT22;2243;48.812;9.232;2023-01-24T03:26:14;3.50;99.90
4461;DHT22;2243;48.812;9.232;2023-01-24T03:29:04;3.50;99.90
4461;DHT22;2243;48.812;9.232;2023-01-24T03:31:53;3.50;99.90
4461;DHT22;2243;48.812;9.232;2023-01-24T03:34:43;3.50;99.90
4461;DHT22;2243;48.812;9.232;2023-01-24T03:37:22;3.40;99.90
4461;DHT22;2243;48.812;9.232;2023-01-24T03:40:15;3.40;99.90
4461;DHT22;2243;48.812;9.232;2023-01-24T03:42:46;3.40;99.90
4461;DHT22;2243;48.812;9.232;2023-01-24T03:45:23;3.50;99.90
4461;DHT22;2243;48.812;9.232;2023-01-24T03:48:07;3.50;99.90
4461;DHT22;2243;48.812;9.232;2023-01-24T03:50:45;3.50;99.90
4461;DHT22;2243;48.812;9.232;2023-01-24T03:53:34;3.30;99.90
4461;DHT22;2243;48.812;9.232;2023-01-24T03:56:05;3.40;99.90
4461;DHT22;2243;48.812;9.232;2023-01-24T03:58:36;3.40;99.90
4461;DHT22;2243;48.812;9.232;2023-01-24T04:01:07;3.50;99.90
4461;DHT22;2243;48.812;9.232;2023-01-24T04:03:38;3.50;99.90
4461;DHT22;2243;48.812;9.232;2023-01-24T04:06:09;3.50;99.90
4461;DHT22;2243;48.812;9.232;2023-01-24T04:08:40;3.60;99.90
4461;DHT22;2243;48.812;9.232;2023-01-24T04:11:11;3.50;99.90
4461;DHT22;2243;48.812;9.232;2023-01-24T04:13:42;3.50;99.90
4461;DHT22;2243;48.812;9.232;2023-01-24T04:16:13;3.40;99.90
4461;DHT22;2243;48.812;9.232;2023-01-24T04:18:45;3.40;99.90
4461;DHT22;2243;48.812;9.232;2023-01-24T04:21:16;3.50;99.90
4461;DHT22;2243;48.812;9.232;2023-01-24T04:23:47;3.50;99.90
4461;DHT22;2243;48.812;9.232;2023-01-24T04:26:17;3.40;99.90
4461;DHT22;2243;48.812;9.232;2023-01-24T04:28:48;3.50;99.90
4461;DHT22;2243;48.812;9.232;2023-01-24T04:31:19;3.50;99.90
4461;DHT22;2243;48.812;9.232;2023-01-24T04:33:50;3.50;99.90
4461;DHT22;2243;48.812;9.232;2023-01-24T04:36:21;3.50;99.90
4461;DHT22;2243;48.812;9.232;2023-01-24T04:38:54;3.50;99.90
4461;DHT22;2243;48.812;9.232;2023-01-24T04:41:28;3.50;99.90
4461;DHT22;2243;48.812;9.232;2023-01-24T04:43:59;3.40;99.90
4461;DHT22;2243;48.812;9.232;2023-01-24T04:46:30;3.60;99.90
4461;DHT22;2243;48.812;9.232;2023-01-24T04:49:01;3.60;99.90
4461;DHT22;2243;48.812;9.232;2023-01-24T04:51:32;3.50;99.90
4461;DHT22;2243;48.812;9.232;2023-01-24T04:54:02;3.60;99.90
4461;DHT22;2243;48.812;9.232;2023-01-24T04:56:33;3.50;99.90
4461;DHT22;2243;48.812;9.232;2023-01-24T04:59:05;3.60;99.90
4461;DHT22;2243;48.812;9.232;2023-01-24T05:01:36;3.50;99.90
4461;DHT22;2243;48.812;9.232;2023-01-24T05:04:07;3.60;99.90
4461;DHT22;2243;48.812;9.232;2023-01-24T05:06:38;3.70;99.90
4461;DHT22;2243;48.812;9.232;2023-01-24T05:09:09;3.70;99.90
4461;DHT22;2243;48.812;9.232;2023-01-24T05:11:40;3.80;99.90
4461;DHT22;2243;48.812;9.232;2023-01-24T05:14:11;3.90;99.90
4461;DHT22;2243;48.812;9.232;2023-01-24T05:16:42;4.00;99.90
4461;DHT22;2243;48.812;9.232;2023-01-24T05:19:12;4.10;99.90
4461;DHT22;2243;48.812;9.232;2023-01-24T05:21:43;4.10;99.90
4461;DHT22;2243;48.812;9.232;2023-01-24T05:24:14;4.00;99.90
4461;DHT22;2243;48.812;9.232;2023-01-24T05:26:52;3.90;99.90
4461;DHT22;2243;48.812;9.232;2023-01-24T05:29:23;3.90;99.90
4461;DHT22;2243;48.812;9.232;2023-01-24T05:31:54;3.90;99.90
4461;DHT22;2243;48.812;9.232;2023-01-24T05:34:25;4.00;99.90
4461;DHT22;2243;48.812;9.232;2023-01-24T05:36:56;3.90;99.90
4461;DHT22;2243;48.812;9.232;2023-01-24T05:39:27;4.00;99.90
4461;DHT22;2243;48.812;9.232;2023-01-24T05:41:58;3.90;99.90
4461;DHT22;2243;48.812;9.232;2023-01-24T05:44:31;3.70;99.90
4461;DHT22;2243;48.812;9.232;2023-01-24T05:47:02;3.70;99.90
4461;DHT22;2243;48.812;9.232;2023-01-24T05:49:33;3.70;99.90
4461;DHT22;2243;48.812;9.232;2023-01-24T05:52:04;3.60;99.90
4461;DHT22;2243;48.812;9.232;2023-01-24T05:54:35;3.70;99.90
4461;DHT22;2243;48.812;9.232;2023-01-24T05:57:05;3.70;99.90
4461;DHT22;2243;48.812;9.232;2023-01-24T05:59:36;3.60;99.90
4461;DHT22;2243;48.812;9.232;2023-01-24T06:02:07;3.60;99.90
4461;DHT22;2243;48.812;9.232;2023-01-24T06:04:38;3.60;99.90
4461;DHT22;2243;48.812;9.232;2023-01-24T06:07:09;3.70;99.90
4461;DHT22;2243;48.812;9.232;2023-01-24T06:09:40;3.70;99.90
4461;DHT22;2243;48.812;9.232;2023-01-24T06:12:11;3.80;99.90
4461;DHT22;2243;48.812;9.232;2023-01-24T06:14:42;3.70;99.90
4461;DHT22;2243;48.812;9.232;2023-01-24T06:17:13;3.70;99.90
4461;DHT22;2243;48.812;9.232;2023-01-24T06:19:44;3.70;99.90
4461;DHT22;2243;48.812;9.232;2023-01-24T06:25:01;3.60;99.90
4461;DHT22;2243;48.812;9.232;2023-01-24T06:27:32;3.50;99.90
4461;DHT22;2243;48.812;9.232;2023-01-24T06:30:04;3.50;99.90
4461;DHT22;2243;48.812;9.232;2023-01-24T06:32:51;3.50;99.90
4461;DHT22;2243;48.812;9.232;2023-01-24T06:38:45;3.50;99.90
4461;DHT22;2243;48.812;9.232;2023-01-24T06:41:17;3.50;99.90
4461;DHT22;2243;48.812;9.232;2023-01-24T06:43:48;3.60;99.90
4461;DHT22;2243;48.812;9.232;2023-01-24T06:46:20;3.60;99.90
4461;DHT22;2243;48.812;9.232;2023-01-24T06:48:50;3.50;99.90
4461;DHT22;2243;48.812;9.232;2023-01-24T06:51:21;3.60;99.90
4461;DHT22;2243;48.812;9.232;2023-01-24T06:53:52;3.60;99.90
4461;DHT22;2243;48.812;9.232;2023-01-24T06:56:23;3.60;99.90
4461;DHT22;2243;48.812;9.232;2023-01-24T06:58:54;3.60;99.90
4461;DHT22;2243;48.812;9.232;2023-01-24T07:01:25;3.60;99.90
4461;DHT22;2243;48.812;9.232;2023-01-24T07:03:56;3.50;99.90
4461;DHT22;2243;48.812;9.232;2023-01-24T07:06:27;3.50;99.90
4461;DHT22;2243;48.812;9.232;2023-01-24T07:08:58;3.40;99.90
4461;DHT22;2243;48.812;9.232;2023-01-24T07:11:29;3.50;99.90
4461;DHT22;2243;48.812;9.232;2023-01-24T07:14:01;3.60;99.90
4461;DHT22;2243;48.812;9.232;2023-01-24T07:16:33;3.60;99.90
4461;DHT22;2243;48.812;9.232;2023-01-24T07:19:04;3.60;99.90
4461;DHT22;2243;48.812;9.232;2023-01-24T07:21:38;3.60;99.90
4461;DHT22;2243;48.812;9.232;2023-01-24T07:24:21;3.60;99.90
4461;DHT22;2243;48.812;9.232;2023-01-24T07:26:57;3.60;99.90
4461;DHT22;2243;48.812;9.232;2023-01-24T07:29:28;3.50;99.90
4461;DHT22;2243;48.812;9.232;2023-01-24T07:31:59;3.60;99.90
4461;DHT22;2243;48.812;9.232;2023-01-24T07:34:30;3.50;99.90
4461;DHT22;2243;48.812;9.232;2023-01-24T07:37:01;3.50;99.90
4461;DHT22;2243;48.812;9.232;2023-01-24T07:39:32;3.40;99.90
4461;DHT22;2243;48.812;9.232;2023-01-24T07:42:03;3.30;99.90
4461;DHT22;2243;48.812;9.232;2023-01-24T07:44:34;3.30;99.90
4461;DHT22;2243;48.812;9.232;2023-01-24T07:47:05;3.30;99.90
4461;DHT22;2243;48.812;9.232;2023-01-24T07:49:35;3.20;99.90
4461;DHT22;2243;48.812;9.232;2023-01-24T07:52:09;3.20;99.90
4461;DHT22;2243;48.812;9.232;2023-01-24T07:54:40;3.20;99.90
4461;DHT22;2243;48.812;9.232;2023-01-24T07:57:11;3.30;99.90
4461;DHT22;2243;48.812;9.232;2023-01-24T07:59:42;3.40;99.90
4461;DHT22;2243;48.812;9.232;2023-01-24T08:02:13;3.40;99.90
4461;DHT22;2243;48.812;9.232;2023-01-24T08:04:44;3.50;99.90
4461;DHT22;2243;48.812;9.232;2023-01-24T08:07:15;3.50;99.90
4461;DHT22;2243;48.812;9.232;2023-01-24T08:09:49;3.60;99.90
4461;DHT22;2243;48.812;9.232;2023-01-24T08:12:23;3.70;99.90
4461;DHT22;2243;48.812;9.232;2023-01-24T08:14:54;3.60;99.90
4461;DHT22;2243;48.812;9.232;2023-01-24T08:17:25;3.80;99.90
4461;DHT22;2243;48.812;9.232;2023-01-24T08:19:56;3.80;99.90
4461;DHT22;2243;48.812;9.232;2023-01-24T08:22:27;3.90;99.90
4461;DHT22;2243;48.812;9.232;2023-01-24T08:24:58;3.90;99.90
4461;DHT22;2243;48.812;9.232;2023-01-24T08:27:29;3.80;99.90
4461;DHT22;2243;48.812;9.232;2023-01-24T08:30:02;3.70;99.90
4461;DHT22;2243;48.812;9.232;2023-01-24T08:32:33;3.60;99.90
4461;DHT22;2243;48.812;9.232;2023-01-24T08:35:05;3.80;99.90
4461;DHT22;2243;48.812;9.232;2023-01-24T08:37:36;3.60;99.90
4461;DHT22;2243;48.812;9.232;2023-01-24T08:40:07;3.70;99.90
4461;DHT22;2243;48.812;9.232;2023-01-24T08:42:39;3.90;99.90
4461;DHT22;2243;48.812;9.232;2023-01-24T08:45:10;3.90;99.90
4461;DHT22;2243;48.812;9.232;2023-01-24T08:47:41;3.90;99.90
4461;DHT22;2243;48.812;9.232;2023-01-24T08:50:12;3.80;99.90
4461;DHT22;2243;48.812;9.232;2023-01-24T08:52:48;3.80;99.90
4461;DHT22;2243;48.812;9.232;2023-01-24T08:55:19;3.80;99.90
4461;DHT22;2243;48.812;9.232;2023-01-24T08:57:50;3.80;99.90
4461;DHT22;2243;48.812;9.232;2023-01-24T09:00:21;3.90;99.90
4461;DHT22;2243;48.812;9.232;2023-01-24T09:02:52;3.90;99.90
4461;DHT22;2243;48.812;9.232;2023-01-24T09:05:23;3.90;99.90
4461;DHT22;2243;48.812;9.232;2023-01-24T09:07:56;3.90;99.90
4461;DHT22;2243;48.812;9.232;2023-01-24T09:10:27;3.90;99.90
4461;DHT22;2243;48.812;9.232;2023-01-24T09:12:58;3.90;99.90
4461;DHT22;2243;48.812;9.232;2023-01-24T09:15:30;4.00;99.90
4461;DHT22;2243;48.812;9.232;2023-01-24T09:18:02;4.00;99.90
4461;DHT22;2243;48.812;9.232;2023-01-24T09:20:33;3.90;99.90
4461;DHT22;2243;48.812;9.232;2023-01-24T09:23:11;3.80;99.90
4461;DHT22;2243;48.812;9.232;2023-01-24T09:25:50;3.80;99.90
4461;DHT22;2243;48.812;9.232;2023-01-24T09:28:22;3.80;99.90
4461;DHT22;2243;48.812;9.232;2023-01-24T09:30:53;3.70;99.90
4461;DHT22;2243;48.812;9.232;2023-01-24T09:33:24;3.70;99.90
4461;DHT22;2243;48.812;9.232;2023-01-24T09:36:00;3.80;99.90
4461;DHT22;2243;48.812;9.232;2023-01-24T09:38:33;3.80;99.90
4461;DHT22;2243;48.812;9.232;2023-01-24T09:47:24;3.70;99.90
4461;DHT22;2243;48.812;9.232;2023-01-24T09:50:04;3.70;99.90
4461;DHT22;2243;48.812;9.232;2023-01-24T09:52:46;3.80;99.90
4461;DHT22;2243;48.812;9.232;2023-01-24T09:55:37;3.80;99.90
4461;DHT22;2243;48.812;9.232;2023-01-24T09:58:36;3.80;99.90
4461;DHT22;2243;48.812;9.232;2023-01-24T10:01:14;3.70;99.90
4461;DHT22;2243;48.812;9.232;2023-01-24T10:03:45;3.80;99.90
4461;DHT22;2243;48.812;9.232;2023-01-24T10:06:22;3.80;99.90
4461;DHT22;2243;48.812;9.232;2023-01-24T10:15:17;3.90;99.90
4461;DHT22;2243;48.812;9.232;2023-01-24T10:18:08;3.90;99.90
4461;DHT22;2243;48.812;9.232;2023-01-24T10:23:50;4.10;99.90
4461;DHT22;2243;48.812;9.232;2023-01-24T10:26:41;4.10;99.90
4461;DHT22;2243;48.812;9.232;2023-01-24T10:32:10;4.00;99.90
4461;DHT22;2243;48.812;9.232;2023-01-24T10:34:46;4.00;99.90
4461;DHT22;2243;48.812;9.232;2023-01-24T10:37:24;4.00;99.90
4461;DHT22;2243;48.812;9.232;2023-01-24T10:40:14;4.10;99.90
4461;DHT22;2243;48.812;9.232;2023-01-24T10:42:47;4.10;99.90
4461;DHT22;2243;48.812;9.232;2023-01-24T10:51:12;4.30;99.90
4461;DHT22;2243;48.812;9.232;2023-01-24T10:53:51;4.30;99.90
4461;DHT22;2243;48.812;9.232;2023-01-24T10:56:22;4.30;99.90
4461;DHT22;2243;48.812;9.232;2023-01-24T10:59:12;4.30;99.90
4461;DHT22;2243;48.812;9.232;2023-01-24T11:01:45;4.20;99.90
4461;DHT22;2243;48.812;9.232;2023-01-24T11:04:29;4.20;99.90
4461;DHT22;2243;48.812;9.232;2023-01-24T11:07:31;4.30;99.90
4461;DHT22;2243;48.812;9.232;2023-01-24T11:10:34;4.50;99.90
4461;DHT22;2243;48.812;9.232;2023-01-24T11:13:37;4.40;99.90
4461;DHT22;2243;48.812;9.232;2023-01-24T11:19:00;4.50;99.90
4461;DHT22;2243;48.812;9.232;2023-01-24T11:21:49;4.50;99.90
4461;DHT22;2243;48.812;9.232;2023-01-24T11:24:24;4.40;99.90
4461;DHT22;2243;48.812;9.232;2023-01-24T11:27:02;4.40;99.90
4461;DHT22;2243;48.812;9.232;2023-01-24T11:29:35;4.30;99.90
4461;DHT22;2243;48.812;9.232;2023-01-24T11:32:31;4.40;99.90
4461;DHT22;2243;48.812;9.232;2023-01-24T11:35:22;4.40;99.90
4461;DHT22;2243;48.812;9.232;2023-01-24T11:40:42;4.30;99.90
4461;DHT22;2243;48.812;9.232;2023-01-24T11:51:59;4.50;99.90
4461;DHT22;2243;48.812;9.232;2023-01-24T12:09:16;4.50;99.90
4461;DHT22;2243;48.812;9.232;2023-01-24T12:12:29;4.50;99.90
4461;DHT22;2243;48.812;9.232;2023-01-24T12:21:56;4.50;99.90
4461;DHT22;2243;48.812;9.232;2023-01-24T12:24:31;4.50;99.90
4461;DHT22;2243;48.812;9.232;2023-01-24T12:27:09;4.50;99.90
4461;DHT22;2243;48.812;9.232;2023-01-24T12:30:04;4.50;99.90
4461;DHT22;2243;48.812;9.232;2023-01-24T12:32:45;4.50;99.90
4461;DHT22;2243;48.812;9.232;2023-01-24T12:41:28;4.50;99.90
4461;DHT22;2243;48.812;9.232;2023-01-24T12:44:24;4.60;99.90
4461;DHT22;2243;48.812;9.232;2023-01-24T12:50:25;4.70;99.90
4461;DHT22;2243;48.812;9.232;2023-01-24T12:53:11;4.80;99.90
4461;DHT22;2243;48.812;9.232;2023-01-24T12:58:24;4.80;99.90
4461;DHT22;2243;48.812;9.232;2023-01-24T13:07:30;4.70;99.90
4461;DHT22;2243;48.812;9.232;2023-01-24T13:13:26;4.60;99.90
4461;DHT22;2243;48.812;9.232;2023-01-24T13:22:54;4.60;99.90
4461;DHT22;2243;48.812;9.232;2023-01-24T13:34:31;4.50;99.90
4461;DHT22;2243;48.812;9.232;2023-01-24T13:37:05;4.40;99.90
4461;DHT22;2243;48.812;9.232;2023-01-24T13:39:38;4.50;99.90
4461;DHT22;2243;48.812;9.232;2023-01-24T13:42:20;4.60;99.90
4461;DHT22;2243;48.812;9.232;2023-01-24T13:44:52;4.50;99.90
4461;DHT22;2243;48.812;9.232;2023-01-24T13:47:26;4.40;99.90
4461;DHT22;2243;48.812;9.232;2023-01-24T13:50:12;4.50;99.90
4461;DHT22;2243;48.812;9.232;2023-01-24T13:52:52;4.40;99.90
4461;DHT22;2243;48.812;9.232;2023-01-24T14:00:51;4.30;99.90
4461;DHT22;2243;48.812;9.232;2023-01-24T14:03:36;4.20;99.90
4461;DHT22;2243;48.812;9.232;2023-01-24T14:06:11;4.30;99.90
4461;DHT22;2243;48.812;9.232;2023-01-24T14:08:47;4.30;99.90
4461;DHT22;2243;48.812;9.232;2023-01-24T14:11:22;4.40;99.90
4461;DHT22;2243;48.812;9.232;2023-01-24T14:13:58;4.30;99.90
4461;DHT22;2243;48.812;9.232;2023-01-24T14:21:52;4.20;99.90
4461;DHT22;2243;48.812;9.232;2023-01-24T14:27:36;4.30;99.90
4461;DHT22;2243;48.812;9.232;2023-01-24T14:32:46;4.40;99.90
4461;DHT22;2243;48.812;9.232;2023-01-24T14:35:37;4.40;99.90
4461;DHT22;2243;48.812;9.232;2023-01-24T14:38:20;4.30;99.90
4461;DHT22;2243;48.812;9.232;2023-01-24T14:40:52;4.30;99.90
4461;DHT22;2243;48.812;9.232;2023-01-24T14:43:37;4.40;99.90
4461;DHT22;2243;48.812;9.232;2023-01-24T14:46:24;4.50;99.90
4461;DHT22;2243;48.812;9.232;2023-01-24T14:48:57;4.60;99.90
4461;DHT22;2243;48.812;9.232;2023-01-24T14:51:28;4.50;99.90
4461;DHT22;2243;48.812;9.232;2023-01-24T14:53:59;4.50;99.90
4461;DHT22;2243;48.812;9.232;2023-01-24T14:56:40;4.50;99.90
4461;DHT22;2243;48.812;9.232;2023-01-24T14:59:11;4.50;99.90
4461;DHT22;2243;48.812;9.232;2023-01-24T15:01:44;4.40;99.90
4461;DHT22;2243;48.812;9.232;2023-01-24T15:04:25;4.40;99.90
4461;DHT22;2243;48.812;9.232;2023-01-24T15:07:12;4.30;99.90
4461;DHT22;2243;48.812;9.232;2023-01-24T15:09:44;4.40;99.90
4461;DHT22;2243;48.812;9.232;2023-01-24T15:12:31;4.50;99.90
4461;DHT22;2243;48.812;9.232;2023-01-24T15:15:04;4.60;99.90
4461;DHT22;2243;48.812;9.232;2023-01-24T15:17:36;5.60;99.90
4461;DHT22;2243;48.812;9.232;2023-01-24T15:20:09;7.40;99.90
4461;DHT22;2243;48.812;9.232;2023-01-24T15:22:41;8.10;99.90
4461;DHT22;2243;48.812;9.232;2023-01-24T15:25:25;8.70;99.90
4461;DHT22;2243;48.812;9.232;2023-01-24T15:28:20;9.10;99.90
4461;DHT22;2243;48.812;9.232;2023-01-24T15:31:01;8.30;99.90
4461;DHT22;2243;48.812;9.232;2023-01-24T15:33:42;7.10;99.90
4461;DHT22;2243;48.812;9.232;2023-01-24T15:36:31;6.10;99.90
4461;DHT22;2243;48.812;9.232;2023-01-24T15:39:10;5.40;99.90
4461;DHT22;2243;48.812;9.232;2023-01-24T15:41:43;5.30;99.90
4461;DHT22;2243;48.812;9.232;2023-01-24T15:44:41;5.00;99.90
4461;DHT22;2243;48.812;9.232;2023-01-24T15:47:20;5.00;99.90
4461;DHT22;2243;48.812;9.232;2023-01-24T15:50:21;4.90;99.90
4461;DHT22;2243;48.812;9.232;2023-01-24T15:53:26;4.70;99.90
4461;DHT22;2243;48.812;9.232;2023-01-24T15:56:19;4.50;99.90
4461;DHT22;2243;48.812;9.232;2023-01-24T15:58:54;4.30;99.90
4461;DHT22;2243;48.812;9.232;2023-01-24T16:01:28;4.10;99.90
4461;DHT22;2243;48.812;9.232;2023-01-24T16:04:18;4.10;99.90
4461;DHT22;2243;48.812;9.232;2023-01-24T16:06:54;4.10;99.90
4461;DHT22;2243;48.812;9.232;2023-01-24T16:09:25;4.20;99.90
4461;DHT22;2243;48.812;9.232;2023-01-24T16:11:58;4.20;99.90
4461;DHT22;2243;48.812;9.232;2023-01-24T16:14:30;4.10;99.90
4461;DHT22;2243;48.812;9.232;2023-01-24T16:17:02;4.10;99.90
4461;DHT22;2243;48.812;9.232;2023-01-24T16:19:34;4.10;99.90
4461;DHT22;2243;48.812;9.232;2023-01-24T16:22:05;4.00;99.90
4461;DHT22;2243;48.812;9.232;2023-01-24T16:24:36;3.90;99.90
4461;DHT22;2243;48.812;9.232;2023-01-24T16:27:13;3.90;99.90
4461;DHT22;2243;48.812;9.232;2023-01-24T16:29:45;3.90;99.90
4461;DHT22;2243;48.812;9.232;2023-01-24T16:32:20;3.90;99.90
4461;DHT22;2243;48.812;9.232;2023-01-24T16:34:53;3.90;99.90
4461;DHT22;2243;48.812;9.232;2023-01-24T16:37:24;3.80;99.90
4461;DHT22;2243;48.812;9.232;2023-01-24T16:39:55;3.80;99.90
4461;DHT22;2243;48.812;9.232;2023-01-24T16:42:26;3.70;99.90
4461;DHT22;2243;48.812;9.232;2023-01-24T16:44:59;3.70;99.90
4461;DHT22;2243;48.812;9.232;2023-01-24T16:47:30;3.70;99.90
4461;DHT22;2243;48.812;9.232;2023-01-24T16:50:02;3.70;99.90
4461;DHT22;2243;48.812;9.232;2023-01-24T16:52:34;3.70;99.90
4461;DHT22;2243;48.812;9.232;2023-01-24T16:55:06;3.70;99.90
4461;DHT22;2243;48.812;9.232;2023-01-24T16:57:38;3.90;99.90
4461;DHT22;2243;48.812;9.232;2023-01-24T17:00:10;3.90;99.90
4461;DHT22;2243;48.812;9.232;2023-01-24T17:02:44;3.90;99.90
4461;DHT22;2243;48.812;9.232;2023-01-24T17:05:15;3.80;99.90
4461;DHT22;2243;48.812;9.232;2023-01-24T17:07:50;3.80;99.90
4461;DHT22;2243;48.812;9.232;2023-01-24T17:10:21;3.80;99.90
4461;DHT22;2243;48.812;9.232;2023-01-24T17:12:52;3.80;99.90
4461;DHT22;2243;48.812;9.232;2023-01-24T17:15:23;3.80;99.90
4461;DHT22;2243;48.812;9.232;2023-01-24T17:17:54;3.80;99.90
4461;DHT22;2243;48.812;9.232;2023-01-24T17:20:25;3.70;99.90
4461;DHT22;2243;48.812;9.232;2023-01-24T17:22:57;3.70;99.90
4461;DHT22;2243;48.812;9.232;2023-01-24T17:25:31;3.70;99.90
4461;DHT22;2243;48.812;9.232;2023-01-24T17:28:02;3.70;99.90
4461;DHT22;2243;48.812;9.232;2023-01-24T17:30:33;3.80;99.90
4461;DHT22;2243;48.812;9.232;2023-01-24T17:33:04;3.70;99.90
4461;DHT22;2243;48.812;9.232;2023-01-24T17:35:36;3.60;99.90
4461;DHT22;2243;48.812;9.232;2023-01-24T17:38:07;3.60;99.90
4461;DHT22;2243;48.812;9.232;2023-01-24T17:40:40;3.50;99.90
4461;DHT22;2243;48.812;9.232;2023-01-24T17:43:11;3.60;99.90
4461;DHT22;2243;48.812;9.232;2023-01-24T17:45:49;3.50;99.90
4461;DHT22;2243;48.812;9.232;2023-01-24T17:48:24;3.70;99.90
4461;DHT22;2243;48.812;9.232;2023-01-24T17:50:55;3.70;99.90
4461;DHT22;2243;48.812;9.232;2023-01-24T17:53:27;3.60;99.90
4461;DHT22;2243;48.812;9.232;2023-01-24T17:55:58;3.60;99.90
4461;DHT22;2243;48.812;9.232;2023-01-24T17:58:30;3.70;99.90
4461;DHT22;2243;48.812;9.232;2023-01-24T18:01:01;3.80;99.90
4461;DHT22;2243;48.812;9.232;2023-01-24T18:03:33;3.80;99.90
4461;DHT22;2243;48.812;9.232;2023-01-24T18:06:05;3.80;99.90
4461;DHT22;2243;48.812;9.232;2023-01-24T18:08:36;3.70;99.90
4461;DHT22;2243;48.812;9.232;2023-01-24T18:11:08;3.70;99.90
4461;DHT22;2243;48.812;9.232;2023-01-24T18:13:42;3.60;99.90
4461;DHT22;2243;48.812;9.232;2023-01-24T18:16:16;3.60;99.90
4461;DHT22;2243;48.812;9.232;2023-01-24T18:18:49;3.60;99.90
4461;DHT22;2243;48.812;9.232;2023-01-24T18:21:22;3.60;99.90
4461;DHT22;2243;48.812;9.232;2023-01-24T18:24:00;3.70;99.90
4461;DHT22;2243;48.812;9.232;2023-01-24T18:26:32;3.80;99.90
4461;DHT22;2243;48.812;9.232;2023-01-24T18:29:03;3.90;99.90
4461;DHT22;2243;48.812;9.232;2023-01-24T18:31:34;4.00;99.90
4461;DHT22;2243;48.812;9.232;2023-01-24T18:34:05;4.00;99.90
4461;DHT22;2243;48.812;9.232;2023-01-24T18:36:37;3.80;99.90
4461;DHT22;2243;48.812;9.232;2023-01-24T18:39:08;3.70;99.90
4461;DHT22;2243;48.812;9.232;2023-01-24T18:41:39;3.60;99.90
4461;DHT22;2243;48.812;9.232;2023-01-24T18:44:11;3.60;99.90
4461;DHT22;2243;48.812;9.232;2023-01-24T18:46:45;4.60;99.90
4461;DHT22;2243;48.812;9.232;2023-01-24T18:49:16;6.10;99.90
4461;DHT22;2243;48.812;9.232;2023-01-24T18:51:48;5.80;99.90
4461;DHT22;2243;48.812;9.232;2023-01-24T18:54:20;5.20;99.90
4461;DHT22;2243;48.812;9.232;2023-01-24T18:56:51;4.70;99.90
4461;DHT22;2243;48.812;9.232;2023-01-24T18:59:22;4.30;99.90
4461;DHT22;2243;48.812;9.232;2023-01-24T19:01:53;4.00;99.90
4461;DHT22;2243;48.812;9.232;2023-01-24T19:04:25;3.90;99.90
4461;DHT22;2243;48.812;9.232;2023-01-24T19:06:58;3.90;99.90
4461;DHT22;2243;48.812;9.232;2023-01-24T19:09:32;3.80;99.90
4461;DHT22;2243;48.812;9.232;2023-01-24T19:12:04;3.60;99.90
4461;DHT22;2243;48.812;9.232;2023-01-24T19:14:36;3.60;99.90
4461;DHT22;2243;48.812;9.232;2023-01-24T19:17:07;3.60;99.90